sensor_id;sensor_type;location;lat;lon;timestamp;temperature;humidity
7998;DHT22;4044;49.814;7.828;2023-05-17T00:00:31;7.10;94.70
7998;DHT22;4044;49.814;7.828;2023-05-17T00:02:57;7.00;94.20
7998;DHT22;4044;49.814;7.828;2023-05-17T00:05:23;6.90;94.40
7998;DHT22;4044;49.814;7.828;2023-05-17T00:07:48;6.80;95.40
7998;DHT22;4044;49.814;7.828;2023-05-17T00:10:14;6.80;95.10
7998;DHT22;4044;49.814;7.828;2023-05-17T00:12:39;6.80;95.70
7998;DHT22;4044;49.814;7.828;2023-05-17T00:15:05;6.70;95.10
7998;DHT22;4044;49.814;7.828;2023-05-17T00:17:31;6.70;95.40
7998;DHT22;4044;49.814;7.828;2023-05-17T00:19:56;6.70;95.50
7998;DHT22;4044;49.814;7.828;2023-05-17T00:22:22;6.70;95.30
7998;DHT22;4044;49.814;7.828;2023-05-17T00:24:47;6.70;95.20
7998;DHT22;4044;49.814;7.828;2023-05-17T00:27:13;6.70;94.90
7998;DHT22;4044;49.814;7.828;2023-05-17T00:29:38;6.60;95.20
7998;DHT22;4044;49.814;7.828;2023-05-17T00:32:04;6.60;94.60
7998;DHT22;4044;49.814;7.828;2023-05-17T00:34:30;6.50;94.90
7998;DHT22;4044;49.814;7.828;2023-05-17T00:36:55;6.50;94.80
7998;DHT22;4044;49.814;7.828;2023-05-17T00:39:21;6.50;94.50
7998;DHT22;4044;49.814;7.828;2023-05-17T00:41:46;6.40;94.60
7998;DHT22;4044;49.814;7.828;2023-05-17T00:44:12;6.40;94.60
7998;DHT22;4044;49.814;7.828;2023-05-17T00:46:37;6.40;95.10
7998;DHT22;4044;49.814;7.828;2023-05-17T00:49:03;6.40;94.70
7998;DHT22;4044;49.814;7.828;2023-05-17T00:51:29;6.30;95.60
7998;DHT22;4044;49.814;7.828;2023-05-17T00:53:55;6.30;95.40
7998;DHT22;4044;49.814;7.828;2023-05-17T00:56:22;6.20;95.20
7998;DHT22;4044;49.814;7.828;2023-05-17T00:58:48;6.20;94.90
7998;DHT22;4044;49.814;7.828;2023-05-17T01:01:13;6.20;94.90
7998;DHT22;4044;49.814;7.828;2023-05-17T01:03:39;6.10;95.00
7998;DHT22;4044;49.814;7.828;2023-05-17T01:06:05;6.10;94.60
7998;DHT22;4044;49.814;7.828;2023-05-17T01:08:31;6.10;95.70
7998;DHT22;4044;49.814;7.828;2023-05-17T01:11:08;6.00;95.50
7998;DHT22;4044;49.814;7.828;2023-05-17T01:16:22;6.00;95.50
7998;DHT22;4044;49.814;7.828;2023-05-17T01:24:37;5.90;95.90
7998;DHT22;4044;49.814;7.828;2023-05-17T01:27:04;5.90;95.60
7998;DHT22;4044;49.814;7.828;2023-05-17T01:29:32;5.90;95.40
7998;DHT22;4044;49.814;7.828;2023-05-17T01:31:58;5.80;96.00
7998;DHT22;4044;49.814;7.828;2023-05-17T01:34:28;5.80;95.70
7998;DHT22;4044;49.814;7.828;2023-05-17T01:36:54;5.70;95.50
7998;DHT22;4044;49.814;7.828;2023-05-17T01:39:19;5.70;96.00
7998;DHT22;4044;49.814;7.828;2023-05-17T01:42:27;5.60;95.90
7998;DHT22;4044;49.814;7.828;2023-05-17T01:48:22;5.50;95.80
7998;DHT22;4044;49.814;7.828;2023-05-17T01:50:28;5.50;95.90
7998;DHT22;4044;49.814;7.828;2023-05-17T01:53:02;5.50;96.10
7998;DHT22;4044;49.814;7.828;2023-05-17T01:55:42;5.50;96.00
7998;DHT22;4044;49.814;7.828;2023-05-17T01:58:11;5.50;95.80
7998;DHT22;4044;49.814;7.828;2023-05-17T02:00:38;5.60;95.40
7998;DHT22;4044;49.814;7.828;2023-05-17T02:03:05;5.60;95.60
7998;DHT22;4044;49.814;7.828;2023-05-17T02:05:31;5.60;95.70
7998;DHT22;4044;49.814;7.828;2023-05-17T02:07:56;5.60;95.50
7998;DHT22;4044;49.814;7.828;2023-05-17T02:10:22;5.50;95.60
7998;DHT22;4044;49.814;7.828;2023-05-17T02:12:47;5.50;95.60
7998;DHT22;4044;49.814;7.828;2023-05-17T02:15:13;5.40;95.90
7998;DHT22;4044;49.814;7.828;2023-05-17T02:17:40;5.40;95.80
7998;DHT22;4044;49.814;7.828;2023-05-17T02:20:06;5.40;96.10
7998;DHT22;4044;49.814;7.828;2023-05-17T02:22:32;5.30;95.90
7998;DHT22;4044;49.814;7.828;2023-05-17T02:24:58;5.30;95.80
7998;DHT22;4044;49.814;7.828;2023-05-17T02:27:23;5.30;96.10
7998;DHT22;4044;49.814;7.828;2023-05-17T02:29:49;5.30;96.00
7998;DHT22;4044;49.814;7.828;2023-05-17T02:32:14;5.30;95.80
7998;DHT22;4044;49.814;7.828;2023-05-17T02:34:40;5.30;95.80
7998;DHT22;4044;49.814;7.828;2023-05-17T02:37:05;5.20;96.20
7998;DHT22;4044;49.814;7.828;2023-05-17T02:39:34;5.10;96.80
7998;DHT22;4044;49.814;7.828;2023-05-17T02:41:59;5.00;96.50
7998;DHT22;4044;49.814;7.828;2023-05-17T02:44:25;4.90;97.70
7998;DHT22;4044;49.814;7.828;2023-05-17T02:46:50;4.80;97.60
7998;DHT22;4044;49.814;7.828;2023-05-17T02:49:16;4.70;98.70
7998;DHT22;4044;49.814;7.828;2023-05-17T02:51:41;4.70;99.20
7998;DHT22;4044;49.814;7.828;2023-05-17T02:54:07;4.70;99.90
7998;DHT22;4044;49.814;7.828;2023-05-17T02:56:32;4.70;99.70
7998;DHT22;4044;49.814;7.828;2023-05-17T02:58:58;4.70;99.30
7998;DHT22;4044;49.814;7.828;2023-05-17T03:01:26;4.80;98.50
7998;DHT22;4044;49.814;7.828;2023-05-17T03:03:51;4.80;98.40
7998;DHT22;4044;49.814;7.828;2023-05-17T03:06:17;4.80;98.10
7998;DHT22;4044;49.814;7.828;2023-05-17T03:08:42;4.80;98.40
7998;DHT22;4044;49.814;7.828;2023-05-17T03:11:08;4.80;98.40
7998;DHT22;4044;49.814;7.828;2023-05-17T03:13:34;4.80;98.60
7998;DHT22;4044;49.814;7.828;2023-05-17T03:15:59;4.90;98.30
7998;DHT22;4044;49.814;7.828;2023-05-17T03:18:25;4.80;98.90
7998;DHT22;4044;49.814;7.828;2023-05-17T03:20:50;4.90;98.60
7998;DHT22;4044;49.814;7.828;2023-05-17T03:23:16;4.90;98.20
7998;DHT22;4044;49.814;7.828;2023-05-17T03:25:41;4.90;98.60
7998;DHT22;4044;49.814;7.828;2023-05-17T03:28:07;4.90;98.40
7998;DHT22;4044;49.814;7.828;2023-05-17T03:30:32;4.90;98.00
7998;DHT22;4044;49.814;7.828;2023-05-17T03:32:58;4.90;97.60
7998;DHT22;4044;49.814;7.828;2023-05-17T03:35:23;4.80;98.70
7998;DHT22;4044;49.814;7.828;2023-05-17T03:37:49;4.90;98.30
7998;DHT22;4044;49.814;7.828;2023-05-17T03:40:14;4.90;98.90
7998;DHT22;4044;49.814;7.828;2023-05-17T03:42:40;4.80;99.00
7998;DHT22;4044;49.814;7.828;2023-05-17T03:45:06;4.90;98.40
7998;DHT22;4044;49.814;7.828;2023-05-17T03:47:31;4.80;98.00
7998;DHT22;4044;49.814;7.828;2023-05-17T03:49:57;4.80;97.90
7998;DHT22;4044;49.814;7.828;2023-05-17T03:52:22;4.70;99.20
7998;DHT22;4044;49.814;7.828;2023-05-17T03:54:48;4.70;98.50
7998;DHT22;4044;49.814;7.828;2023-05-17T03:57:14;4.70;98.80
7998;DHT22;4044;49.814;7.828;2023-05-17T03:59:39;4.70;98.30
7998;DHT22;4044;49.814;7.828;2023-05-17T04:02:05;4.60;99.40
7998;DHT22;4044;49.814;7.828;2023-05-17T04:04:30;4.60;99.10
7998;DHT22;4044;49.814;7.828;2023-05-17T04:06:56;4.60;99.60
7998;DHT22;4044;49.814;7.828;2023-05-17T04:09:22;4.60;99.70
7998;DHT22;4044;49.814;7.828;2023-05-17T04:11:47;4.60;99.20
7998;DHT22;4044;49.814;7.828;2023-05-17T04:14:13;4.60;99.90
7998;DHT22;4044;49.814;7.828;2023-05-17T04:16:39;4.70;99.80
7998;DHT22;4044;49.814;7.828;2023-05-17T04:19:04;4.70;99.40
7998;DHT22;4044;49.814;7.828;2023-05-17T04:21:30;4.70;99.40
7998;DHT22;4044;49.814;7.828;2023-05-17T04:23:55;4.80;99.00
7998;DHT22;4044;49.814;7.828;2023-05-17T04:26:21;4.80;98.70
7998;DHT22;4044;49.814;7.828;2023-05-17T04:28:46;4.80;99.30
7998;DHT22;4044;49.814;7.828;2023-05-17T04:31:14;4.80;98.80
7998;DHT22;4044;49.814;7.828;2023-05-17T04:33:40;4.80;99.60
7998;DHT22;4044;49.814;7.828;2023-05-17T04:36:05;4.80;98.90
7998;DHT22;4044;49.814;7.828;2023-05-17T04:38:31;4.80;99.50
7998;DHT22;4044;49.814;7.828;2023-05-17T04:41:04;4.80;99.50
7998;DHT22;4044;49.814;7.828;2023-05-17T04:43:31;4.80;99.90
7998;DHT22;4044;49.814;7.828;2023-05-17T04:45:57;4.90;99.70
7998;DHT22;4044;49.814;7.828;2023-05-17T04:48:24;5.00;99.40
7998;DHT22;4044;49.814;7.828;2023-05-17T04:50:50;5.00;99.30
7998;DHT22;4044;49.814;7.828;2023-05-17T04:53:16;5.10;99.10
7998;DHT22;4044;49.814;7.828;2023-05-17T04:55:41;5.10;99.20
7998;DHT22;4044;49.814;7.828;2023-05-17T04:58:07;5.10;99.80
7998;DHT22;4044;49.814;7.828;2023-05-17T05:00:33;5.20;99.90
7998;DHT22;4044;49.814;7.828;2023-05-17T05:02:59;5.20;99.30
7998;DHT22;4044;49.814;7.828;2023-05-17T05:05:25;5.30;99.10
7998;DHT22;4044;49.814;7.828;2023-05-17T05:07:50;5.40;98.90
7998;DHT22;4044;49.814;7.828;2023-05-17T05:10:16;5.50;99.30
7998;DHT22;4044;49.814;7.828;2023-05-17T05:12:42;5.60;99.10
7998;DHT22;4044;49.814;7.828;2023-05-17T05:15:08;5.70;99.70
7998;DHT22;4044;49.814;7.828;2023-05-17T05:17:33;5.70;99.80
7998;DHT22;4044;49.814;7.828;2023-05-17T05:19:59;5.80;99.20
7998;DHT22;4044;49.814;7.828;2023-05-17T05:22:24;5.90;99.90
7998;DHT22;4044;49.814;7.828;2023-05-17T05:24:50;5.90;99.90
7998;DHT22;4044;49.814;7.828;2023-05-17T05:27:16;6.00;99.90
7998;DHT22;4044;49.814;7.828;2023-05-17T05:29:41;6.10;99.90
7998;DHT22;4044;49.814;7.828;2023-05-17T05:32:07;6.20;99.90
7998;DHT22;4044;49.814;7.828;2023-05-17T05:34:33;6.30;98.90
7998;DHT22;4044;49.814;7.828;2023-05-17T05:36:58;6.40;99.50
7998;DHT22;4044;49.814;7.828;2023-05-17T05:39:24;6.60;99.20
7998;DHT22;4044;49.814;7.828;2023-05-17T05:41:49;6.70;99.90
7998;DHT22;4044;49.814;7.828;2023-05-17T05:44:16;6.80;99.90
7998;DHT22;4044;49.814;7.828;2023-05-17T05:46:42;6.90;99.90
7998;DHT22;4044;49.814;7.828;2023-05-17T05:49:07;7.00;99.60
7998;DHT22;4044;49.814;7.828;2023-05-17T05:51:33;7.10;99.50
7998;DHT22;4044;49.814;7.828;2023-05-17T05:53:59;7.20;99.50
7998;DHT22;4044;49.814;7.828;2023-05-17T05:56:24;7.20;99.60
7998;DHT22;4044;49.814;7.828;2023-05-17T05:58:52;7.30;99.90
7998;DHT22;4044;49.814;7.828;2023-05-17T06:01:17;7.40;99.90
7998;DHT22;4044;49.814;7.828;2023-05-17T06:03:43;7.40;99.90
7998;DHT22;4044;49.814;7.828;2023-05-17T06:06:08;7.50;99.90
7998;DHT22;4044;49.814;7.828;2023-05-17T06:08:34;7.60;99.90
7998;DHT22;4044;49.814;7.828;2023-05-17T06:11:00;7.60;99.90
7998;DHT22;4044;49.814;7.828;2023-05-17T06:13:25;7.80;99.90
7998;DHT22;4044;49.814;7.828;2023-05-17T06:15:51;8.00;99.50
7998;DHT22;4044;49.814;7.828;2023-05-17T06:18:16;8.20;99.90
7998;DHT22;4044;49.814;7.828;2023-05-17T06:20:42;8.50;99.20
7998;DHT22;4044;49.814;7.828;2023-05-17T06:23:07;8.70;98.80
7998;DHT22;4044;49.814;7.828;2023-05-17T06:25:33;8.90;98.50
7998;DHT22;4044;49.814;7.828;2023-05-17T06:27:58;9.20;98.20
7998;DHT22;4044;49.814;7.828;2023-05-17T06:30:27;9.60;97.40
7998;DHT22;4044;49.814;7.828;2023-05-17T06:32:52;9.90;96.40
7998;DHT22;4044;49.814;7.828;2023-05-17T06:35:18;10.30;95.10
7998;DHT22;4044;49.814;7.828;2023-05-17T06:37:43;10.70;95.10
7998;DHT22;4044;49.814;7.828;2023-05-17T06:40:09;11.10;94.60
7998;DHT22;4044;49.814;7.828;2023-05-17T06:42:35;11.40;93.50
7998;DHT22;4044;49.814;7.828;2023-05-17T06:45:00;11.70;93.60
7998;DHT22;4044;49.814;7.828;2023-05-17T06:47:26;11.90;92.30
7998;DHT22;4044;49.814;7.828;2023-05-17T06:49:51;12.00;92.30
7998;DHT22;4044;49.814;7.828;2023-05-17T06:52:17;12.20;92.00
7998;DHT22;4044;49.814;7.828;2023-05-17T06:54:43;12.40;91.70
7998;DHT22;4044;49.814;7.828;2023-05-17T06:57:08;12.50;91.10
7998;DHT22;4044;49.814;7.828;2023-05-17T06:59:35;12.70;90.60
7998;DHT22;4044;49.814;7.828;2023-05-17T07:02:00;12.90;90.10
7998;DHT22;4044;49.814;7.828;2023-05-17T07:04:26;13.10;90.20
7998;DHT22;4044;49.814;7.828;2023-05-17T07:06:51;13.30;88.00
7998;DHT22;4044;49.814;7.828;2023-05-17T07:09:18;13.40;88.80
7998;DHT22;4044;49.814;7.828;2023-05-17T07:11:44;13.30;86.50
7998;DHT22;4044;49.814;7.828;2023-05-17T07:14:09;13.20;86.90
7998;DHT22;4044;49.814;7.828;2023-05-17T07:16:35;13.20;86.30
7998;DHT22;4044;49.814;7.828;2023-05-17T07:19:01;13.30;85.20
7998;DHT22;4044;49.814;7.828;2023-05-17T07:21:26;13.30;87.10
7998;DHT22;4044;49.814;7.828;2023-05-17T07:23:52;13.20;85.00
7998;DHT22;4044;49.814;7.828;2023-05-17T07:26:19;13.40;86.40
7998;DHT22;4044;49.814;7.828;2023-05-17T07:28:44;13.60;86.60
7998;DHT22;4044;49.814;7.828;2023-05-17T07:31:10;13.70;84.80
7998;DHT22;4044;49.814;7.828;2023-05-17T07:33:36;13.40;84.00
7998;DHT22;4044;49.814;7.828;2023-05-17T07:36:03;13.20;84.40
7998;DHT22;4044;49.814;7.828;2023-05-17T07:38:29;13.10;84.20
7998;DHT22;4044;49.814;7.828;2023-05-17T07:40:54;13.00;84.40
7998;DHT22;4044;49.814;7.828;2023-05-17T07:43:20;13.00;84.90
7998;DHT22;4044;49.814;7.828;2023-05-17T07:45:45;13.00;83.70
7998;DHT22;4044;49.814;7.828;2023-05-17T07:48:11;13.00;82.60
7998;DHT22;4044;49.814;7.828;2023-05-17T07:50:37;13.30;83.80
7998;DHT22;4044;49.814;7.828;2023-05-17T07:53:03;13.60;81.50
7998;DHT22;4044;49.814;7.828;2023-05-17T07:55:28;14.00;83.70
7998;DHT22;4044;49.814;7.828;2023-05-17T07:57:54;14.30;83.70
7998;DHT22;4044;49.814;7.828;2023-05-17T08:00:20;14.30;79.60
7998;DHT22;4044;49.814;7.828;2023-05-17T08:02:45;14.10;79.20
7998;DHT22;4044;49.814;7.828;2023-05-17T08:05:11;14.10;82.20
7998;DHT22;4044;49.814;7.828;2023-05-17T08:07:36;14.10;81.30
7998;DHT22;4044;49.814;7.828;2023-05-17T08:10:03;14.00;82.00
7998;DHT22;4044;49.814;7.828;2023-05-17T08:12:28;13.80;82.10
7998;DHT22;4044;49.814;7.828;2023-05-17T08:14:54;13.70;81.60
7998;DHT22;4044;49.814;7.828;2023-05-17T08:17:19;13.90;82.10
7998;DHT22;4044;49.814;7.828;2023-05-17T08:19:46;13.80;81.50
7998;DHT22;4044;49.814;7.828;2023-05-17T08:22:11;13.90;81.70
7998;DHT22;4044;49.814;7.828;2023-05-17T08:24:37;14.10;82.90
7998;DHT22;4044;49.814;7.828;2023-05-17T08:27:03;14.20;82.40
7998;DHT22;4044;49.814;7.828;2023-05-17T08:29:28;14.50;83.60
7998;DHT22;4044;49.814;7.828;2023-05-17T08:31:54;14.60;81.00
7998;DHT22;4044;49.814;7.828;2023-05-17T08:34:19;14.40;80.00
7998;DHT22;4044;49.814;7.828;2023-05-17T08:36:45;14.50;79.70
7998;DHT22;4044;49.814;7.828;2023-05-17T08:39:11;14.70;80.40
7998;DHT22;4044;49.814;7.828;2023-05-17T08:41:37;14.70;77.20
7998;DHT22;4044;49.814;7.828;2023-05-17T08:44:04;15.00;79.30
7998;DHT22;4044;49.814;7.828;2023-05-17T08:46:31;14.90;75.80
7998;DHT22;4044;49.814;7.828;2023-05-17T08:48:58;14.70;75.70
7998;DHT22;4044;49.814;7.828;2023-05-17T08:51:26;14.90;77.50
7998;DHT22;4044;49.814;7.828;2023-05-17T08:53:53;15.10;78.00
7998;DHT22;4044;49.814;7.828;2023-05-17T08:56:19;15.20;74.70
7998;DHT22;4044;49.814;7.828;2023-05-17T08:58:47;15.00;74.70
7998;DHT22;4044;49.814;7.828;2023-05-17T09:01:17;15.00;74.90
7998;DHT22;4044;49.814;7.828;2023-05-17T09:03:46;15.30;75.40
7998;DHT22;4044;49.814;7.828;2023-05-17T09:06:20;15.40;75.60
7998;DHT22;4044;49.814;7.828;2023-05-17T09:08:46;14.90;73.90
7998;DHT22;4044;49.814;7.828;2023-05-17T09:11:12;14.90;77.20
7998;DHT22;4044;49.814;7.828;2023-05-17T09:13:37;14.90;75.00
7998;DHT22;4044;49.814;7.828;2023-05-17T09:16:12;15.00;76.40
7998;DHT22;4044;49.814;7.828;2023-05-17T09:18:38;14.90;74.50
7998;DHT22;4044;49.814;7.828;2023-05-17T09:21:03;15.00;77.00
7998;DHT22;4044;49.814;7.828;2023-05-17T09:23:30;15.20;73.60
7998;DHT22;4044;49.814;7.828;2023-05-17T09:26:06;15.60;74.00
7998;DHT22;4044;49.814;7.828;2023-05-17T09:28:39;16.40;76.40
7998;DHT22;4044;49.814;7.828;2023-05-17T09:31:08;16.70;73.10
7998;DHT22;4044;49.814;7.828;2023-05-17T09:33:44;16.80;73.90
7998;DHT22;4044;49.814;7.828;2023-05-17T09:36:20;16.60;70.20
7998;DHT22;4044;49.814;7.828;2023-05-17T09:38:57;16.40;71.90
7998;DHT22;4044;49.814;7.828;2023-05-17T09:41:30;16.10;72.90
7998;DHT22;4044;49.814;7.828;2023-05-17T09:44:00;16.20;73.80
7998;DHT22;4044;49.814;7.828;2023-05-17T09:46:32;16.10;71.60
7998;DHT22;4044;49.814;7.828;2023-05-17T09:49:03;16.20;73.00
7998;DHT22;4044;49.814;7.828;2023-05-17T09:51:38;15.90;70.30
7998;DHT22;4044;49.814;7.828;2023-05-17T09:54:05;15.80;70.10
7998;DHT22;4044;49.814;7.828;2023-05-17T09:56:32;15.70;71.60
7998;DHT22;4044;49.814;7.828;2023-05-17T09:59:00;15.90;69.10
7998;DHT22;4044;49.814;7.828;2023-05-17T10:01:27;16.50;71.90
7998;DHT22;4044;49.814;7.828;2023-05-17T10:03:53;17.00;72.40
7998;DHT22;4044;49.814;7.828;2023-05-17T10:06:21;16.90;71.00
7998;DHT22;4044;49.814;7.828;2023-05-17T10:08:50;17.00;67.70
7998;DHT22;4044;49.814;7.828;2023-05-17T10:11:21;16.90;68.90
7998;DHT22;4044;49.814;7.828;2023-05-17T10:14:11;16.60;66.20
7998;DHT22;4044;49.814;7.828;2023-05-17T10:16:38;16.40;67.60
7998;DHT22;4044;49.814;7.828;2023-05-17T10:19:04;16.20;67.30
7998;DHT22;4044;49.814;7.828;2023-05-17T10:21:30;16.40;66.80
7998;DHT22;4044;49.814;7.828;2023-05-17T10:23:59;16.80;69.20
7998;DHT22;4044;49.814;7.828;2023-05-17T10:26:26;17.30;71.00
7998;DHT22;4044;49.814;7.828;2023-05-17T10:28:57;18.10;69.60
7998;DHT22;4044;49.814;7.828;2023-05-17T10:31:30;18.60;66.30
7998;DHT22;4044;49.814;7.828;2023-05-17T10:33:58;18.50;64.60
7998;DHT22;4044;49.814;7.828;2023-05-17T10:36:25;18.70;65.10
7998;DHT22;4044;49.814;7.828;2023-05-17T10:38:51;18.80;60.80
7998;DHT22;4044;49.814;7.828;2023-05-17T10:41:18;18.90;62.80
7998;DHT22;4044;49.814;7.828;2023-05-17T10:43:45;18.70;62.10
7998;DHT22;4044;49.814;7.828;2023-05-17T10:46:15;18.30;60.30
7998;DHT22;4044;49.814;7.828;2023-05-17T10:48:42;17.80;62.90
7998;DHT22;4044;49.814;7.828;2023-05-17T10:51:10;17.50;62.00
7998;DHT22;4044;49.814;7.828;2023-05-17T10:54:11;17.50;63.10
7998;DHT22;4044;49.814;7.828;2023-05-17T10:56:48;17.50;61.60
7998;DHT22;4044;49.814;7.828;2023-05-17T10:59:21;17.60;61.80
7998;DHT22;4044;49.814;7.828;2023-05-17T11:04:48;18.00;64.20
7998;DHT22;4044;49.814;7.828;2023-05-17T11:12:29;18.20;63.20
7998;DHT22;4044;49.814;7.828;2023-05-17T11:14:56;18.60;63.70
7998;DHT22;4044;49.814;7.828;2023-05-17T11:17:25;18.90;62.40
7998;DHT22;4044;49.814;7.828;2023-05-17T11:22:24;19.40;61.60
7998;DHT22;4044;49.814;7.828;2023-05-17T11:24:55;19.50;59.50
7998;DHT22;4044;49.814;7.828;2023-05-17T11:27:21;19.70;63.50
7998;DHT22;4044;49.814;7.828;2023-05-17T11:29:53;19.50;63.70
7998;DHT22;4044;49.814;7.828;2023-05-17T11:32:30;19.50;62.70
7998;DHT22;4044;49.814;7.828;2023-05-17T11:34:59;19.10;59.40
7998;DHT22;4044;49.814;7.828;2023-05-17T11:37:27;18.40;60.90
7998;DHT22;4044;49.814;7.828;2023-05-17T11:40:05;18.70;62.40
7998;DHT22;4044;49.814;7.828;2023-05-17T11:42:32;19.10;60.00
7998;DHT22;4044;49.814;7.828;2023-05-17T11:45:00;19.10;59.70
7998;DHT22;4044;49.814;7.828;2023-05-17T11:47:26;19.30;60.00
7998;DHT22;4044;49.814;7.828;2023-05-17T11:49:59;19.40;59.80
7998;DHT22;4044;49.814;7.828;2023-05-17T11:52:26;19.90;59.70
7998;DHT22;4044;49.814;7.828;2023-05-17T11:54:53;21.30;58.40
7998;DHT22;4044;49.814;7.828;2023-05-17T11:57:19;22.10;57.30
7998;DHT22;4044;49.814;7.828;2023-05-17T11:59:46;20.70;55.50
7998;DHT22;4044;49.814;7.828;2023-05-17T12:02:29;19.80;58.80
7998;DHT22;4044;49.814;7.828;2023-05-17T12:04:55;19.70;57.20
7998;DHT22;4044;49.814;7.828;2023-05-17T12:07:20;19.80;59.10
7998;DHT22;4044;49.814;7.828;2023-05-17T12:09:46;21.60;56.90
7998;DHT22;4044;49.814;7.828;2023-05-17T12:12:12;23.40;55.50
7998;DHT22;4044;49.814;7.828;2023-05-17T12:14:37;24.40;54.10
7998;DHT22;4044;49.814;7.828;2023-05-17T12:17:07;24.70;56.50
7998;DHT22;4044;49.814;7.828;2023-05-17T12:19:33;23.90;52.50
7998;DHT22;4044;49.814;7.828;2023-05-17T12:22:06;23.70;56.50
7998;DHT22;4044;49.814;7.828;2023-05-17T12:24:37;24.30;52.60
7998;DHT22;4044;49.814;7.828;2023-05-17T12:27:03;23.30;52.50
7998;DHT22;4044;49.814;7.828;2023-05-17T12:29:28;24.00;53.20
7998;DHT22;4044;49.814;7.828;2023-05-17T12:31:54;26.00;52.30
7998;DHT22;4044;49.814;7.828;2023-05-17T12:34:20;27.20;51.60
7998;DHT22;4044;49.814;7.828;2023-05-17T12:36:46;29.00;48.60
7998;DHT22;4044;49.814;7.828;2023-05-17T12:39:13;30.00;48.40
7998;DHT22;4044;49.814;7.828;2023-05-17T12:41:39;31.00;48.30
7998;DHT22;4044;49.814;7.828;2023-05-17T12:44:07;31.90;45.60
7998;DHT22;4044;49.814;7.828;2023-05-17T12:46:33;30.90;44.40
7998;DHT22;4044;49.814;7.828;2023-05-17T12:49:06;28.80;47.20
7998;DHT22;4044;49.814;7.828;2023-05-17T12:51:43;27.40;46.10
7998;DHT22;4044;49.814;7.828;2023-05-17T12:54:09;25.90;47.80
7998;DHT22;4044;49.814;7.828;2023-05-17T12:56:35;24.30;51.90
7998;DHT22;4044;49.814;7.828;2023-05-17T13:01:37;24.70;50.30
7998;DHT22;4044;49.814;7.828;2023-05-17T13:04:03;24.60;52.20
7998;DHT22;4044;49.814;7.828;2023-05-17T13:06:54;24.70;50.00
7998;DHT22;4044;49.814;7.828;2023-05-17T13:09:21;24.90;48.00
7998;DHT22;4044;49.814;7.828;2023-05-17T13:11:52;24.80;49.70
7998;DHT22;4044;49.814;7.828;2023-05-17T13:17:02;26.20;48.30
7998;DHT22;4044;49.814;7.828;2023-05-17T13:19:28;26.60;49.30
7998;DHT22;4044;49.814;7.828;2023-05-17T13:21:53;26.00;50.00
7998;DHT22;4044;49.814;7.828;2023-05-17T13:24:19;25.20;48.50
7998;DHT22;4044;49.814;7.828;2023-05-17T13:26:44;24.90;50.50
7998;DHT22;4044;49.814;7.828;2023-05-17T13:29:10;25.40;50.00
7998;DHT22;4044;49.814;7.828;2023-05-17T13:31:35;26.80;48.60
7998;DHT22;4044;49.814;7.828;2023-05-17T13:34:01;27.30;48.70
7998;DHT22;4044;49.814;7.828;2023-05-17T13:36:26;27.00;46.00
7998;DHT22;4044;49.814;7.828;2023-05-17T13:38:52;26.40;48.50
7998;DHT22;4044;49.814;7.828;2023-05-17T13:41:18;27.50;47.60
7998;DHT22;4044;49.814;7.828;2023-05-17T13:43:43;27.40;47.80
7998;DHT22;4044;49.814;7.828;2023-05-17T13:46:09;27.20;48.70
7998;DHT22;4044;49.814;7.828;2023-05-17T13:48:34;27.90;49.10
7998;DHT22;4044;49.814;7.828;2023-05-17T13:51:00;28.20;43.00
7998;DHT22;4044;49.814;7.828;2023-05-17T13:53:26;27.90;45.30
7998;DHT22;4044;49.814;7.828;2023-05-17T13:55:51;27.80;44.70
7998;DHT22;4044;49.814;7.828;2023-05-17T13:58:17;27.40;45.60
7998;DHT22;4044;49.814;7.828;2023-05-17T14:00:42;27.60;47.70
7998;DHT22;4044;49.814;7.828;2023-05-17T14:03:10;27.60;46.70
7998;DHT22;4044;49.814;7.828;2023-05-17T14:05:36;27.20;46.10
7998;DHT22;4044;49.814;7.828;2023-05-17T14:08:02;27.30;46.00
7998;DHT22;4044;49.814;7.828;2023-05-17T14:10:28;27.10;45.90
7998;DHT22;4044;49.814;7.828;2023-05-17T14:12:54;28.10;45.20
7998;DHT22;4044;49.814;7.828;2023-05-17T14:15:20;28.90;43.90
7998;DHT22;4044;49.814;7.828;2023-05-17T14:17:46;29.30;45.70
7998;DHT22;4044;49.814;7.828;2023-05-17T14:20:12;28.80;44.80
7998;DHT22;4044;49.814;7.828;2023-05-17T14:22:38;28.60;43.70
7998;DHT22;4044;49.814;7.828;2023-05-17T14:25:04;28.00;48.50
7998;DHT22;4044;49.814;7.828;2023-05-17T14:27:29;28.40;44.50
7998;DHT22;4044;49.814;7.828;2023-05-17T14:29:55;28.40;46.40
7998;DHT22;4044;49.814;7.828;2023-05-17T14:32:20;29.20;43.50
7998;DHT22;4044;49.814;7.828;2023-05-17T14:34:46;29.90;44.70
7998;DHT22;4044;49.814;7.828;2023-05-17T14:37:11;30.40;43.70
7998;DHT22;4044;49.814;7.828;2023-05-17T14:39:39;31.70;43.40
7998;DHT22;4044;49.814;7.828;2023-05-17T14:42:04;32.80;42.10
7998;DHT22;4044;49.814;7.828;2023-05-17T14:44:30;33.50;41.80
7998;DHT22;4044;49.814;7.828;2023-05-17T14:46:56;33.70;40.30
7998;DHT22;4044;49.814;7.828;2023-05-17T14:49:22;34.30;41.60
7998;DHT22;4044;49.814;7.828;2023-05-17T14:51:47;35.10;40.60
7998;DHT22;4044;49.814;7.828;2023-05-17T14:54:13;34.90;38.90
7998;DHT22;4044;49.814;7.828;2023-05-17T14:56:38;34.80;38.90
7998;DHT22;4044;49.814;7.828;2023-05-17T14:59:04;33.20;40.20
7998;DHT22;4044;49.814;7.828;2023-05-17T15:01:29;31.00;40.40
7998;DHT22;4044;49.814;7.828;2023-05-17T15:03:55;30.30;44.90
7998;DHT22;4044;49.814;7.828;2023-05-17T15:06:21;31.00;43.50
7998;DHT22;4044;49.814;7.828;2023-05-17T15:08:49;31.40;43.00
7998;DHT22;4044;49.814;7.828;2023-05-17T15:11:15;31.60;40.70
7998;DHT22;4044;49.814;7.828;2023-05-17T15:13:40;30.60;41.10
7998;DHT22;4044;49.814;7.828;2023-05-17T15:16:07;30.10;41.40
7998;DHT22;4044;49.814;7.828;2023-05-17T15:18:33;29.10;42.50
7998;DHT22;4044;49.814;7.828;2023-05-17T15:21:00;28.40;42.90
7998;DHT22;4044;49.814;7.828;2023-05-17T15:23:25;28.10;42.40
7998;DHT22;4044;49.814;7.828;2023-05-17T15:25:51;27.60;41.20
7998;DHT22;4044;49.814;7.828;2023-05-17T15:28:17;27.20;43.30
7998;DHT22;4044;49.814;7.828;2023-05-17T15:30:45;27.00;45.60
7998;DHT22;4044;49.814;7.828;2023-05-17T15:33:10;27.00;45.50
7998;DHT22;4044;49.814;7.828;2023-05-17T15:35:39;27.40;45.10
7998;DHT22;4044;49.814;7.828;2023-05-17T15:38:05;27.40;44.00
7998;DHT22;4044;49.814;7.828;2023-05-17T15:40:31;26.30;43.70
7998;DHT22;4044;49.814;7.828;2023-05-17T15:42:57;26.10;45.50
7998;DHT22;4044;49.814;7.828;2023-05-17T15:45:22;26.50;45.50
7998;DHT22;4044;49.814;7.828;2023-05-17T15:47:48;26.50;44.60
7998;DHT22;4044;49.814;7.828;2023-05-17T15:50:14;26.10;47.30
7998;DHT22;4044;49.814;7.828;2023-05-17T15:52:40;25.90;46.20
7998;DHT22;4044;49.814;7.828;2023-05-17T15:55:06;25.60;47.40
7998;DHT22;4044;49.814;7.828;2023-05-17T15:57:31;25.80;47.40
7998;DHT22;4044;49.814;7.828;2023-05-17T15:59:57;25.90;44.50
7998;DHT22;4044;49.814;7.828;2023-05-17T16:02:22;26.20;44.60
7998;DHT22;4044;49.814;7.828;2023-05-17T16:04:49;26.10;43.70
7998;DHT22;4044;49.814;7.828;2023-05-17T16:07:14;26.10;45.40
7998;DHT22;4044;49.814;7.828;2023-05-17T16:09:40;25.70;47.00
7998;DHT22;4044;49.814;7.828;2023-05-17T16:12:06;26.40;46.60
7998;DHT22;4044;49.814;7.828;2023-05-17T16:14:32;27.10;44.30
7998;DHT22;4044;49.814;7.828;2023-05-17T16:16:57;27.70;43.30
7998;DHT22;4044;49.814;7.828;2023-05-17T16:19:23;27.80;43.80
7998;DHT22;4044;49.814;7.828;2023-05-17T16:21:50;28.90;41.70
7998;DHT22;4044;49.814;7.828;2023-05-17T16:24:16;29.60;42.50
7998;DHT22;4044;49.814;7.828;2023-05-17T16:26:42;30.50;41.70
7998;DHT22;4044;49.814;7.828;2023-05-17T16:29:08;31.00;40.60
7998;DHT22;4044;49.814;7.828;2023-05-17T16:31:34;31.40;39.40